sensor_id;sensor_type;location;lat;lon;timestamp;P1;durP1;ratioP1;P2;durP2;ratioP2
10319;SDS011;5205;52.168;5.420;2023-08-06T00:01:56;12.73;;;7.13;;
10319;SDS011;5205;52.168;5.420;2023-08-06T00:04:23;13.02;;;6.55;;
10319;SDS011;5205;52.168;5.420;2023-08-06T00:06:50;10.60;;;6.68;;
10319;SDS011;5205;52.168;5.420;2023-08-06T00:09:17;10.75;;;7.20;;
10319;SDS011;5205;52.168;5.420;2023-08-06T00:11:44;10.85;;;6.43;;
10319;SDS011;5205;52.168;5.420;2023-08-06T00:14:11;11.15;;;6.72;;
10319;SDS011;5205;52.168;5.420;2023-08-06T00:16:40;11.68;;;6.40;;
10319;SDS011;5205;52.168;5.420;2023-08-06T00:19:09;8.00;;;5.97;;
10319;SDS011;5205;52.168;5.420;2023-08-06T00:21:36;10.10;;;6.10;;
10319;SDS011;5205;52.168;5.420;2023-08-06T00:24:03;12.88;;;6.95;;
10319;SDS011;5205;52.168;5.420;2023-08-06T00:26:30;12.27;;;6.32;;
10319;SDS011;5205;52.168;5.420;2023-08-06T00:28:57;9.00;;;6.25;;
10319;SDS011;5205;52.168;5.420;2023-08-06T00:31:24;11.85;;;6.07;;
10319;SDS011;5205;52.168;5.420;2023-08-06T00:33:51;10.52;;;5.90;;
10319;SDS011;5205;52.168;5.420;2023-08-06T00:36:20;8.82;;;5.85;;
10319;SDS011;5205;52.168;5.420;2023-08-06T00:38:47;15.45;;;5.72;;
10319;SDS011;5205;52.168;5.420;2023-08-06T00:41:14;12.13;;;5.50;;
10319;SDS011;5205;52.168;5.420;2023-08-06T00:43:41;9.23;;;5.93;;
10319;SDS011;5205;52.168;5.420;2023-08-06T00:46:08;9.50;;;6.00;;
10319;SDS011;5205;52.168;5.420;2023-08-06T00:48:36;9.38;;;5.63;;
10319;SDS011;5205;52.168;5.420;2023-08-06T00:51:03;10.02;;;5.82;;
10319;SDS011;5205;52.168;5.420;2023-08-06T00:53:31;10.60;;;6.18;;
10319;SDS011;5205;52.168;5.420;2023-08-06T00:55:59;11.98;;;5.85;;
10319;SDS011;5205;52.168;5.420;2023-08-06T00:58:26;9.85;;;7.00;;
10319;SDS011;5205;52.168;5.420;2023-08-06T01:00:53;9.70;;;5.70;;
10319;SDS011;5205;52.168;5.420;2023-08-06T01:03:20;12.27;;;6.07;;
10319;SDS011;5205;52.168;5.420;2023-08-06T01:05:47;15.55;;;6.78;;
10319;SDS011;5205;52.168;5.420;2023-08-06T01:08:17;12.25;;;6.40;;
10319;SDS011;5205;52.168;5.420;2023-08-06T01:10:51;12.63;;;7.03;;
10319;SDS011;5205;52.168;5.420;2023-08-06T01:13:24;10.57;;;6.60;;
10319;SDS011;5205;52.168;5.420;2023-08-06T01:15:54;13.40;;;7.10;;
10319;SDS011;5205;52.168;5.420;2023-08-06T01:18:23;14.50;;;7.00;;
10319;SDS011;5205;52.168;5.420;2023-08-06T01:20:51;11.07;;;6.15;;
10319;SDS011;5205;52.168;5.420;2023-08-06T01:23:18;10.95;;;6.25;;
10319;SDS011;5205;52.168;5.420;2023-08-06T01:25:49;11.40;;;6.60;;
10319;SDS011;5205;52.168;5.420;2023-08-06T01:28:18;10.98;;;7.05;;
10319;SDS011;5205;52.168;5.420;2023-08-06T01:30:46;14.43;;;7.75;;
10319;SDS011;5205;52.168;5.420;2023-08-06T01:33:14;14.77;;;6.95;;
10319;SDS011;5205;52.168;5.420;2023-08-06T01:35:43;10.32;;;7.00;;
10319;SDS011;5205;52.168;5.420;2023-08-06T01:38:12;14.02;;;7.45;;
10319;SDS011;5205;52.168;5.420;2023-08-06T01:40:39;12.88;;;7.00;;
10319;SDS011;5205;52.168;5.420;2023-08-06T01:43:06;12.38;;;8.27;;
10319;SDS011;5205;52.168;5.420;2023-08-06T01:45:33;10.65;;;7.18;;
10319;SDS011;5205;52.168;5.420;2023-08-06T01:48:01;13.13;;;7.80;;
10319;SDS011;5205;52.168;5.420;2023-08-06T01:50:28;12.10;;;7.97;;
10319;SDS011;5205;52.168;5.420;2023-08-06T01:52:55;13.05;;;7.85;;
10319;SDS011;5205;52.168;5.420;2023-08-06T01:55:23;13.82;;;8.65;;
10319;SDS011;5205;52.168;5.420;2023-08-06T01:57:51;14.82;;;8.23;;
10319;SDS011;5205;52.168;5.420;2023-08-06T02:00:18;19.05;;;8.93;;
10319;SDS011;5205;52.168;5.420;2023-08-06T02:02:45;12.52;;;8.57;;
10319;SDS011;5205;52.168;5.420;2023-08-06T02:05:12;19.95;;;7.90;;
10319;SDS011;5205;52.168;5.420;2023-08-06T02:07:39;16.13;;;8.65;;
10319;SDS011;5205;52.168;5.420;2023-08-06T02:10:07;17.83;;;8.35;;
10319;SDS011;5205;52.168;5.420;2023-08-06T02:12:35;14.27;;;8.70;;
10319;SDS011;5205;52.168;5.420;2023-08-06T02:15:03;14.75;;;8.80;;
10319;SDS011;5205;52.168;5.420;2023-08-06T02:17:30;13.68;;;8.18;;
10319;SDS011;5205;52.168;5.420;2023-08-06T02:19:57;16.85;;;8.65;;
10319;SDS011;5205;52.168;5.420;2023-08-06T02:22:24;13.38;;;8.35;;
10319;SDS011;5205;52.168;5.420;2023-08-06T02:24:51;17.15;;;8.77;;
10319;SDS011;5205;52.168;5.420;2023-08-06T02:27:18;15.82;;;8.43;;
10319;SDS011;5205;52.168;5.420;2023-08-06T02:29:47;13.80;;;8.55;;
10319;SDS011;5205;52.168;5.420;2023-08-06T02:32:14;14.10;;;8.82;;
10319;SDS011;5205;52.168;5.420;2023-08-06T02:34:41;13.23;;;8.43;;
10319;SDS011;5205;52.168;5.420;2023-08-06T02:37:08;18.55;;;9.43;;
10319;SDS011;5205;52.168;5.420;2023-08-06T02:39:35;12.55;;;8.70;;
10319;SDS011;5205;52.168;5.420;2023-08-06T02:42:05;19.33;;;9.32;;
10319;SDS011;5205;52.168;5.420;2023-08-06T02:44:32;15.95;;;9.35;;
10319;SDS011;5205;52.168;5.420;2023-08-06T02:47:01;18.17;;;9.18;;
10319;SDS011;5205;52.168;5.420;2023-08-06T02:49:28;14.52;;;8.70;;
10319;SDS011;5205;52.168;5.420;2023-08-06T02:51:55;12.63;;;8.43;;
10319;SDS011;5205;52.168;5.420;2023-08-06T02:54:22;15.80;;;9.02;;
10319;SDS011;5205;52.168;5.420;2023-08-06T02:56:50;15.05;;;8.23;;
10319;SDS011;5205;52.168;5.420;2023-08-06T02:59:17;12.68;;;8.13;;
10319;SDS011;5205;52.168;5.420;2023-08-06T03:01:44;11.18;;;8.18;;
10319;SDS011;5205;52.168;5.420;2023-08-06T03:04:13;14.80;;;7.60;;
10319;SDS011;5205;52.168;5.420;2023-08-06T03:06:42;11.68;;;7.30;;
10319;SDS011;5205;52.168;5.420;2023-08-06T03:09:09;11.25;;;6.60;;
10319;SDS011;5205;52.168;5.420;2023-08-06T03:11:36;10.98;;;6.97;;
10319;SDS011;5205;52.168;5.420;2023-08-06T03:14:03;11.27;;;6.93;;
10319;SDS011;5205;52.168;5.420;2023-08-06T03:16:31;14.50;;;7.45;;
10319;SDS011;5205;52.168;5.420;2023-08-06T03:18:58;10.35;;;7.00;;
10319;SDS011;5205;52.168;5.420;2023-08-06T03:21:26;12.93;;;6.55;;
10319;SDS011;5205;52.168;5.420;2023-08-06T03:23:53;9.77;;;5.93;;
10319;SDS011;5205;52.168;5.420;2023-08-06T03:26:21;11.05;;;5.82;;
10319;SDS011;5205;52.168;5.420;2023-08-06T03:28:48;10.32;;;5.13;;
10319;SDS011;5205;52.168;5.420;2023-08-06T03:31:15;9.18;;;5.03;;
10319;SDS011;5205;52.168;5.420;2023-08-06T03:33:42;9.00;;;4.60;;
10319;SDS011;5205;52.168;5.420;2023-08-06T03:36:09;6.43;;;4.25;;
10319;SDS011;5205;52.168;5.420;2023-08-06T03:38:37;8.63;;;4.43;;
10319;SDS011;5205;52.168;5.420;2023-08-06T03:41:05;7.70;;;4.40;;
10319;SDS011;5205;52.168;5.420;2023-08-06T03:43:32;10.40;;;4.82;;
10319;SDS011;5205;52.168;5.420;2023-08-06T03:45:59;7.32;;;4.97;;
10319;SDS011;5205;52.168;5.420;2023-08-06T03:48:26;9.80;;;5.50;;
10319;SDS011;5205;52.168;5.420;2023-08-06T03:50:53;11.27;;;5.55;;
10319;SDS011;5205;52.168;5.420;2023-08-06T03:53:20;11.00;;;6.03;;
10319;SDS011;5205;52.168;5.420;2023-08-06T03:55:49;10.00;;;5.95;;
10319;SDS011;5205;52.168;5.420;2023-08-06T03:58:16;11.30;;;6.38;;
10319;SDS011;5205;52.168;5.420;2023-08-06T04:00:43;14.80;;;6.57;;
10319;SDS011;5205;52.168;5.420;2023-08-06T04:03:10;13.40;;;7.63;;
10319;SDS011;5205;52.168;5.420;2023-08-06T04:05:37;15.60;;;8.85;;
10319;SDS011;5205;52.168;5.420;2023-08-06T04:08:04;15.35;;;8.68;;
10319;SDS011;5205;52.168;5.420;2023-08-06T04:10:31;14.38;;;8.95;;
10319;SDS011;5205;52.168;5.420;2023-08-06T04:13:00;13.68;;;8.65;;
10319;SDS011;5205;52.168;5.420;2023-08-06T04:15:27;16.92;;;9.32;;
10319;SDS011;5205;52.168;5.420;2023-08-06T04:17:54;17.33;;;10.00;;
10319;SDS011;5205;52.168;5.420;2023-08-06T04:20:22;20.30;;;10.82;;
10319;SDS011;5205;52.168;5.420;2023-08-06T04:22:49;17.95;;;10.50;;
10319;SDS011;5205;52.168;5.420;2023-08-06T04:25:16;19.40;;;10.65;;
10319;SDS011;5205;52.168;5.420;2023-08-06T04:27:45;16.88;;;10.68;;
10319;SDS011;5205;52.168;5.420;2023-08-06T04:30:14;18.52;;;10.27;;
10319;SDS011;5205;52.168;5.420;2023-08-06T04:32:41;20.15;;;11.43;;
10319;SDS011;5205;52.168;5.420;2023-08-06T04:35:08;22.15;;;12.40;;
10319;SDS011;5205;52.168;5.420;2023-08-06T04:37:36;20.60;;;12.25;;
10319;SDS011;5205;52.168;5.420;2023-08-06T04:40:03;19.02;;;11.52;;
10319;SDS011;5205;52.168;5.420;2023-08-06T04:42:30;20.98;;;11.68;;
10319;SDS011;5205;52.168;5.420;2023-08-06T04:44:57;17.92;;;10.90;;
10319;SDS011;5205;52.168;5.420;2023-08-06T04:47:26;18.75;;;10.70;;
10319;SDS011;5205;52.168;5.420;2023-08-06T04:49:53;18.42;;;10.88;;
10319;SDS011;5205;52.168;5.420;2023-08-06T04:52:20;21.38;;;12.13;;
10319;SDS011;5205;52.168;5.420;2023-08-06T04:54:47;19.17;;;11.98;;
10319;SDS011;5205;52.168;5.420;2023-08-06T04:57:14;20.70;;;12.38;;
10319;SDS011;5205;52.168;5.420;2023-08-06T04:59:41;21.77;;;12.30;;
10319;SDS011;5205;52.168;5.420;2023-08-06T05:02:08;20.17;;;12.30;;
10319;SDS011;5205;52.168;5.420;2023-08-06T05:04:37;19.20;;;12.90;;
10319;SDS011;5205;52.168;5.420;2023-08-06T05:07:05;19.85;;;12.13;;
10319;SDS011;5205;52.168;5.420;2023-08-06T05:09:32;21.73;;;13.30;;
10319;SDS011;5205;52.168;5.420;2023-08-06T05:12:00;22.90;;;13.20;;
10319;SDS011;5205;52.168;5.420;2023-08-06T05:14:27;20.23;;;12.57;;
10319;SDS011;5205;52.168;5.420;2023-08-06T05:16:54;21.52;;;12.90;;
10319;SDS011;5205;52.168;5.420;2023-08-06T05:19:21;24.25;;;12.93;;
10319;SDS011;5205;52.168;5.420;2023-08-06T05:21:50;22.67;;;12.77;;
10319;SDS011;5205;52.168;5.420;2023-08-06T05:24:17;20.25;;;12.27;;
10319;SDS011;5205;52.168;5.420;2023-08-06T05:26:44;21.60;;;13.10;;
10319;SDS011;5205;52.168;5.420;2023-08-06T05:29:12;22.27;;;12.68;;
10319;SDS011;5205;52.168;5.420;2023-08-06T05:31:39;18.23;;;11.63;;
10319;SDS011;5205;52.168;5.420;2023-08-06T05:34:07;19.40;;;12.77;;
10319;SDS011;5205;52.168;5.420;2023-08-06T05:36:34;22.20;;;12.45;;
10319;SDS011;5205;52.168;5.420;2023-08-06T05:39:02;20.50;;;12.43;;
10319;SDS011;5205;52.168;5.420;2023-08-06T05:41:30;20.65;;;12.25;;
10319;SDS011;5205;52.168;5.420;2023-08-06T05:43:57;25.88;;;13.43;;
10319;SDS011;5205;52.168;5.420;2023-08-06T05:46:24;24.17;;;12.93;;
10319;SDS011;5205;52.168;5.420;2023-08-06T05:48:51;26.80;;;13.30;;
10319;SDS011;5205;52.168;5.420;2023-08-06T05:51:19;21.70;;;12.32;;
10319;SDS011;5205;52.168;5.420;2023-08-06T05:53:46;19.42;;;12.73;;
10319;SDS011;5205;52.168;5.420;2023-08-06T05:56:15;21.92;;;13.15;;
10319;SDS011;5205;52.168;5.420;2023-08-06T05:58:42;23.02;;;13.38;;
10319;SDS011;5205;52.168;5.420;2023-08-06T06:01:11;23.40;;;12.77;;
10319;SDS011;5205;52.168;5.420;2023-08-06T06:03:38;22.17;;;13.38;;
10319;SDS011;5205;52.168;5.420;2023-08-06T06:06:05;24.42;;;13.50;;
10319;SDS011;5205;52.168;5.420;2023-08-06T06:08:32;20.85;;;12.07;;
10319;SDS011;5205;52.168;5.420;2023-08-06T06:11:00;20.92;;;12.35;;
10319;SDS011;5205;52.168;5.420;2023-08-06T06:13:28;18.73;;;11.77;;
10319;SDS011;5205;52.168;5.420;2023-08-06T06:15:55;19.40;;;12.57;;
10319;SDS011;5205;52.168;5.420;2023-08-06T06:18:22;19.30;;;11.98;;
10319;SDS011;5205;52.168;5.420;2023-08-06T06:20:50;22.80;;;12.70;;
10319;SDS011;5205;52.168;5.420;2023-08-06T06:23:17;19.23;;;11.50;;
10319;SDS011;5205;52.168;5.420;2023-08-06T06:25:46;22.30;;;12.85;;
10319;SDS011;5205;52.168;5.420;2023-08-06T06:28:13;16.55;;;11.30;;
10319;SDS011;5205;52.168;5.420;2023-08-06T06:30:42;16.83;;;10.93;;
10319;SDS011;5205;52.168;5.420;2023-08-06T06:33:09;18.20;;;11.45;;
10319;SDS011;5205;52.168;5.420;2023-08-06T06:35:36;19.10;;;11.05;;
10319;SDS011;5205;52.168;5.420;2023-08-06T06:38:04;16.58;;;10.93;;
10319;SDS011;5205;52.168;5.420;2023-08-06T06:40:32;21.08;;;11.27;;
10319;SDS011;5205;52.168;5.420;2023-08-06T06:42:59;19.73;;;10.95;;
10319;SDS011;5205;52.168;5.420;2023-08-06T06:45:26;16.40;;;10.35;;
10319;SDS011;5205;52.168;5.420;2023-08-06T06:47:54;16.48;;;10.23;;
10319;SDS011;5205;52.168;5.420;2023-08-06T06:50:21;19.52;;;12.13;;
10319;SDS011;5205;52.168;5.420;2023-08-06T06:52:49;16.92;;;10.65;;
10319;SDS011;5205;52.168;5.420;2023-08-06T06:55:16;20.50;;;11.93;;
10319;SDS011;5205;52.168;5.420;2023-08-06T06:57:43;17.67;;;11.32;;
10319;SDS011;5205;52.168;5.420;2023-08-06T07:00:10;17.10;;;10.45;;
10319;SDS011;5205;52.168;5.420;2023-08-06T07:02:38;18.17;;;11.05;;
10319;SDS011;5205;52.168;5.420;2023-08-06T07:05:07;18.52;;;10.98;;
10319;SDS011;5205;52.168;5.420;2023-08-06T07:07:34;17.80;;;11.00;;
10319;SDS011;5205;52.168;5.420;2023-08-06T07:10:02;19.50;;;11.52;;
10319;SDS011;5205;52.168;5.420;2023-08-06T07:12:29;17.02;;;10.98;;
10319;SDS011;5205;52.168;5.420;2023-08-06T07:14:57;22.83;;;11.40;;
10319;SDS011;5205;52.168;5.420;2023-08-06T07:17:24;18.83;;;11.98;;
10319;SDS011;5205;52.168;5.420;2023-08-06T07:19:51;17.60;;;11.40;;
10319;SDS011;5205;52.168;5.420;2023-08-06T07:22:19;17.52;;;11.88;;
10319;SDS011;5205;52.168;5.420;2023-08-06T07:24:46;16.25;;;11.00;;
10319;SDS011;5205;52.168;5.420;2023-08-06T07:27:14;20.52;;;12.13;;
10319;SDS011;5205;52.168;5.420;2023-08-06T07:29:41;17.65;;;10.88;;
10319;SDS011;5205;52.168;5.420;2023-08-06T07:32:08;18.48;;;11.40;;
10319;SDS011;5205;52.168;5.420;2023-08-06T07:34:35;16.30;;;10.98;;
10319;SDS011;5205;52.168;5.420;2023-08-06T07:37:02;15.23;;;10.43;;
10319;SDS011;5205;52.168;5.420;2023-08-06T07:39:31;18.70;;;10.48;;
10319;SDS011;5205;52.168;5.420;2023-08-06T07:41:58;17.17;;;10.68;;
10319;SDS011;5205;52.168;5.420;2023-08-06T07:44:27;17.98;;;10.55;;
10319;SDS011;5205;52.168;5.420;2023-08-06T07:46:54;16.95;;;10.43;;
10319;SDS011;5205;52.168;5.420;2023-08-06T07:49:21;16.83;;;10.48;;
10319;SDS011;5205;52.168;5.420;2023-08-06T07:51:49;19.70;;;10.38;;
10319;SDS011;5205;52.168;5.420;2023-08-06T07:54:18;16.33;;;10.48;;
10319;SDS011;5205;52.168;5.420;2023-08-06T07:56:46;21.52;;;10.35;;
10319;SDS011;5205;52.168;5.420;2023-08-06T07:59:14;15.70;;;10.43;;
10319;SDS011;5205;52.168;5.420;2023-08-06T08:01:41;17.13;;;9.85;;
10319;SDS011;5205;52.168;5.420;2023-08-06T08:04:09;15.18;;;10.40;;
10319;SDS011;5205;52.168;5.420;2023-08-06T08:06:36;17.02;;;10.52;;
10319;SDS011;5205;52.168;5.420;2023-08-06T08:09:03;14.43;;;9.00;;
10319;SDS011;5205;52.168;5.420;2023-08-06T08:11:30;13.82;;;9.40;;
10319;SDS011;5205;52.168;5.420;2023-08-06T08:13:59;14.15;;;8.52;;
10319;SDS011;5205;52.168;5.420;2023-08-06T08:16:26;13.57;;;8.98;;
10319;SDS011;5205;52.168;5.420;2023-08-06T08:18:53;17.08;;;9.60;;
10319;SDS011;5205;52.168;5.420;2023-08-06T08:21:20;16.05;;;9.40;;
10319;SDS011;5205;52.168;5.420;2023-08-06T08:23:49;16.52;;;9.25;;
10319;SDS011;5205;52.168;5.420;2023-08-06T08:26:16;15.38;;;8.55;;
10319;SDS011;5205;52.168;5.420;2023-08-06T08:28:43;13.57;;;8.75;;
10319;SDS011;5205;52.168;5.420;2023-08-06T08:31:12;14.15;;;8.75;;
10319;SDS011;5205;52.168;5.420;2023-08-06T08:33:42;16.63;;;8.82;;
10319;SDS011;5205;52.168;5.420;2023-08-06T08:36:09;13.05;;;8.55;;
10319;SDS011;5205;52.168;5.420;2023-08-06T08:38:36;8.05;;;5.30;;
10319;SDS011;5205;52.168;5.420;2023-08-06T08:41:04;5.75;;;3.47;;
10319;SDS011;5205;52.168;5.420;2023-08-06T08:43:31;3.45;;;2.17;;
10319;SDS011;5205;52.168;5.420;2023-08-06T08:45:58;6.43;;;3.35;;
10319;SDS011;5205;52.168;5.420;2023-08-06T08:48:27;3.97;;;2.08;;
10319;SDS011;5205;52.168;5.420;2023-08-06T08:50:55;3.28;;;1.90;;
10319;SDS011;5205;52.168;5.420;2023-08-06T08:53:22;7.63;;;1.90;;
10319;SDS011;5205;52.168;5.420;2023-08-06T08:55:49;7.97;;;2.00;;
10319;SDS011;5205;52.168;5.420;2023-08-06T08:58:17;16.08;;;2.17;;
10319;SDS011;5205;52.168;5.420;2023-08-06T09:00:45;8.95;;;2.10;;
10319;SDS011;5205;52.168;5.420;2023-08-06T09:03:14;6.00;;;2.13;;
10319;SDS011;5205;52.168;5.420;2023-08-06T09:05:44;3.25;;;1.80;;
10319;SDS011;5205;52.168;5.420;2023-08-06T09:08:12;3.17;;;1.73;;
10319;SDS011;5205;52.168;5.420;2023-08-06T09:10:43;2.63;;;1.60;;
10319;SDS011;5205;52.168;5.420;2023-08-06T09:13:10;4.10;;;2.10;;
10319;SDS011;5205;52.168;5.420;2023-08-06T09:15:39;3.05;;;1.50;;
10319;SDS011;5205;52.168;5.420;2023-08-06T09:18:09;3.03;;;1.60;;
10319;SDS011;5205;52.168;5.420;2023-08-06T09:20:37;3.90;;;2.35;;
10319;SDS011;5205;52.168;5.420;2023-08-06T09:23:08;3.20;;;2.25;;
10319;SDS011;5205;52.168;5.420;2023-08-06T09:25:36;4.57;;;2.70;;
10319;SDS011;5205;52.168;5.420;2023-08-06T09:28:04;4.82;;;2.30;;
10319;SDS011;5205;52.168;5.420;2023-08-06T09:30:32;4.55;;;2.65;;
10319;SDS011;5205;52.168;5.420;2023-08-06T09:33:00;5.78;;;2.40;;
10319;SDS011;5205;52.168;5.420;2023-08-06T09:35:28;5.28;;;2.97;;
10319;SDS011;5205;52.168;5.420;2023-08-06T09:37:55;6.07;;;2.90;;
10319;SDS011;5205;52.168;5.420;2023-08-06T09:40:28;5.60;;;2.83;;
10319;SDS011;5205;52.168;5.420;2023-08-06T09:42:55;6.38;;;3.20;;
10319;SDS011;5205;52.168;5.420;2023-08-06T09:45:22;5.40;;;3.22;;
10319;SDS011;5205;52.168;5.420;2023-08-06T09:47:50;6.10;;;2.92;;
10319;SDS011;5205;52.168;5.420;2023-08-06T09:50:17;4.95;;;3.63;;
10319;SDS011;5205;52.168;5.420;2023-08-06T09:52:44;5.25;;;2.67;;
10319;SDS011;5205;52.168;5.420;2023-08-06T09:55:12;5.55;;;3.35;;
10319;SDS011;5205;52.168;5.420;2023-08-06T09:57:41;7.03;;;3.28;;
10319;SDS011;5205;52.168;5.420;2023-08-06T10:00:09;6.03;;;3.45;;
10319;SDS011;5205;52.168;5.420;2023-08-06T10:02:37;6.30;;;3.95;;
10319;SDS011;5205;52.168;5.420;2023-08-06T10:05:05;7.32;;;4.20;;
10319;SDS011;5205;52.168;5.420;2023-08-06T10:07:32;6.47;;;4.18;;
10319;SDS011;5205;52.168;5.420;2023-08-06T10:09:59;7.68;;;4.40;;
10319;SDS011;5205;52.168;5.420;2023-08-06T10:12:27;7.20;;;4.63;;
10319;SDS011;5205;52.168;5.420;2023-08-06T10:14:57;8.10;;;4.75;;
10319;SDS011;5205;52.168;5.420;2023-08-06T10:17:26;7.93;;;4.43;;
10319;SDS011;5205;52.168;5.420;2023-08-06T10:19:54;5.68;;;3.97;;
10319;SDS011;5205;52.168;5.420;2023-08-06T10:22:21;7.85;;;3.95;;
10319;SDS011;5205;52.168;5.420;2023-08-06T10:24:50;8.38;;;4.50;;
10319;SDS011;5205;52.168;5.420;2023-08-06T10:27:21;7.88;;;4.05;;
10319;SDS011;5205;52.168;5.420;2023-08-06T10:29:48;7.53;;;4.00;;
10319;SDS011;5205;52.168;5.420;2023-08-06T10:32:16;10.50;;;4.10;;
10319;SDS011;5205;52.168;5.420;2023-08-06T10:34:52;7.85;;;3.92;;
10319;SDS011;5205;52.168;5.420;2023-08-06T10:37:20;5.65;;;3.63;;
10319;SDS011;5205;52.168;5.420;2023-08-06T10:39:48;7.07;;;3.97;;
10319;SDS011;5205;52.168;5.420;2023-08-06T10:42:19;8.00;;;3.63;;
10319;SDS011;5205;52.168;5.420;2023-08-06T10:47:30;8.57;;;3.88;;
10319;SDS011;5205;52.168;5.420;2023-08-06T10:49:57;8.85;;;4.00;;
10319;SDS011;5205;52.168;5.420;2023-08-06T10:52:24;7.93;;;3.95;;
10319;SDS011;5205;52.168;5.420;2023-08-06T10:54:52;6.15;;;3.92;;
10319;SDS011;5205;52.168;5.420;2023-08-06T10:57:20;6.03;;;3.38;;
10319;SDS011;5205;52.168;5.420;2023-08-06T10:59:47;8.20;;;3.65;;
10319;SDS011;5205;52.168;5.420;2023-08-06T11:02:15;7.75;;;3.80;;
10319;SDS011;5205;52.168;5.420;2023-08-06T11:04:43;7.05;;;3.80;;
10319;SDS011;5205;52.168;5.420;2023-08-06T11:07:10;6.60;;;3.33;;
10319;SDS011;5205;52.168;5.420;2023-08-06T11:09:37;8.40;;;3.55;;
10319;SDS011;5205;52.168;5.420;2023-08-06T11:12:07;7.45;;;3.47;;
10319;SDS011;5205;52.168;5.420;2023-08-06T11:14:35;7.30;;;3.13;;
10319;SDS011;5205;52.168;5.420;2023-08-06T11:17:03;7.82;;;3.33;;
10319;SDS011;5205;52.168;5.420;2023-08-06T11:19:31;8.38;;;3.28;;
10319;SDS011;5205;52.168;5.420;2023-08-06T11:22:00;10.95;;;3.00;;
10319;SDS011;5205;52.168;5.420;2023-08-06T11:24:27;5.15;;;2.70;;
10319;SDS011;5205;52.168;5.420;2023-08-06T11:26:54;4.85;;;2.47;;
10319;SDS011;5205;52.168;5.420;2023-08-06T11:29:21;8.00;;;3.58;;
10319;SDS011;5205;52.168;5.420;2023-08-06T11:31:49;6.82;;;3.15;;
10319;SDS011;5205;52.168;5.420;2023-08-06T11:34:16;7.03;;;2.78;;
10319;SDS011;5205;52.168;5.420;2023-08-06T11:36:43;10.70;;;3.08;;
10319;SDS011;5205;52.168;5.420;2023-08-06T11:39:12;4.93;;;2.55;;
10319;SDS011;5205;52.168;5.420;2023-08-06T11:41:39;7.93;;;2.80;;
10319;SDS011;5205;52.168;5.420;2023-08-06T11:44:07;5.18;;;2.45;;
10319;SDS011;5205;52.168;5.420;2023-08-06T11:46:49;4.55;;;2.20;;
10319;SDS011;5205;52.168;5.420;2023-08-06T11:49:17;6.00;;;2.25;;
10319;SDS011;5205;52.168;5.420;2023-08-06T11:51:46;11.35;;;2.15;;
10319;SDS011;5205;52.168;5.420;2023-08-06T11:54:15;6.13;;;2.40;;
10319;SDS011;5205;52.168;5.420;2023-08-06T11:56:42;13.77;;;4.70;;
10319;SDS011;5205;52.168;5.420;2023-08-06T11:59:09;5.45;;;2.10;;
10319;SDS011;5205;52.168;5.420;2023-08-06T12:01:37;8.18;;;2.35;;
10319;SDS011;5205;52.168;5.420;2023-08-06T12:04:05;4.90;;;2.15;;
10319;SDS011;5205;52.168;5.420;2023-08-06T12:06:41;9.38;;;2.50;;
10319;SDS011;5205;52.168;5.420;2023-08-06T12:09:08;7.32;;;2.60;;
10319;SDS011;5205;52.168;5.420;2023-08-06T12:11:37;4.93;;;2.13;;
10319;SDS011;5205;52.168;5.420;2023-08-06T12:14:04;11.93;;;2.30;;
10319;SDS011;5205;52.168;5.420;2023-08-06T12:16:31;3.35;;;1.95;;
10319;SDS011;5205;52.168;5.420;2023-08-06T12:18:59;8.48;;;1.70;;
10319;SDS011;5205;52.168;5.420;2023-08-06T12:21:26;8.68;;;2.08;;
10319;SDS011;5205;52.168;5.420;2023-08-06T12:23:53;8.05;;;2.05;;
10319;SDS011;5205;52.168;5.420;2023-08-06T12:26:20;3.60;;;1.65;;
10319;SDS011;5205;52.168;5.420;2023-08-06T12:28:48;7.20;;;1.92;;
10319;SDS011;5205;52.168;5.420;2023-08-06T12:31:15;4.47;;;1.75;;
10319;SDS011;5205;52.168;5.420;2023-08-06T12:33:42;3.67;;;1.88;;
10319;SDS011;5205;52.168;5.420;2023-08-06T12:36:10;6.32;;;2.10;;
10319;SDS011;5205;52.168;5.420;2023-08-06T12:38:37;4.18;;;1.60;;
10319;SDS011;5205;52.168;5.420;2023-08-06T12:41:04;4.60;;;1.80;;
10319;SDS011;5205;52.168;5.420;2023-08-06T12:43:31;5.00;;;1.80;;
10319;SDS011;5205;52.168;5.420;2023-08-06T12:46:00;4.32;;;2.05;;
10319;SDS011;5205;52.168;5.420;2023-08-06T12:48:27;3.72;;;1.70;;
10319;SDS011;5205;52.168;5.420;2023-08-06T12:50:55;4.93;;;1.92;;
10319;SDS011;5205;52.168;5.420;2023-08-06T12:53:22;3.95;;;2.28;;
10319;SDS011;5205;52.168;5.420;2023-08-06T12:55:49;3.25;;;1.70;;
10319;SDS011;5205;52.168;5.420;2023-08-06T12:58:16;5.20;;;2.03;;
10319;SDS011;5205;52.168;5.420;2023-08-06T13:00:43;5.18;;;1.92;;
10319;SDS011;5205;52.168;5.420;2023-08-06T13:03:12;4.82;;;1.70;;
10319;SDS011;5205;52.168;5.420;2023-08-06T13:05:39;3.47;;;2.05;;
10319;SDS011;5205;52.168;5.420;2023-08-06T13:08:06;5.60;;;2.15;;
10319;SDS011;5205;52.168;5.420;2023-08-06T13:10:33;5.80;;;2.40;;
10319;SDS011;5205;52.168;5.420;2023-08-06T13:13:00;8.07;;;2.15;;
10319;SDS011;5205;52.168;5.420;2023-08-06T13:15:27;5.82;;;2.15;;
10319;SDS011;5205;52.168;5.420;2023-08-06T13:17:54;6.65;;;2.67;;
10319;SDS011;5205;52.168;5.420;2023-08-06T13:20:23;3.83;;;2.20;;
10319;SDS011;5205;52.168;5.420;2023-08-06T13:22:50;6.63;;;2.20;;
10319;SDS011;5205;52.168;5.420;2023-08-06T13:25:18;5.90;;;2.50;;
10319;SDS011;5205;52.168;5.420;2023-08-06T13:27:46;5.88;;;2.78;;
10319;SDS011;5205;52.168;5.420;2023-08-06T13:30:13;4.78;;;1.92;;
10319;SDS011;5205;52.168;5.420;2023-08-06T13:32:41;6.75;;;2.58;;
10319;SDS011;5205;52.168;5.420;2023-08-06T13:35:08;5.13;;;2.35;;
10319;SDS011;5205;52.168;5.420;2023-08-06T13:37:37;3.50;;;2.10;;
10319;SDS011;5205;52.168;5.420;2023-08-06T13:40:05;7.00;;;3.00;;
10319;SDS011;5205;52.168;5.420;2023-08-06T13:42:33;5.75;;;2.72;;
10319;SDS011;5205;52.168;5.420;2023-08-06T13:45:00;6.82;;;2.97;;
10319;SDS011;5205;52.168;5.420;2023-08-06T13:47:28;7.95;;;2.75;;
10319;SDS011;5205;52.168;5.420;2023-08-06T13:49:56;6.05;;;3.08;;
10319;SDS011;5205;52.168;5.420;2023-08-06T13:52:24;8.80;;;2.88;;
10319;SDS011;5205;52.168;5.420;2023-08-06T13:54:53;4.45;;;2.40;;
10319;SDS011;5205;52.168;5.420;2023-08-06T13:57:20;4.90;;;3.03;;
10319;SDS011;5205;52.168;5.420;2023-08-06T13:59:47;5.93;;;2.75;;
10319;SDS011;5205;52.168;5.420;2023-08-06T14:02:14;8.45;;;2.58;;
10319;SDS011;5205;52.168;5.420;2023-08-06T14:04:42;7.47;;;2.47;;
10319;SDS011;5205;52.168;5.420;2023-08-06T14:07:09;9.07;;;2.38;;
10319;SDS011;5205;52.168;5.420;2023-08-06T14:09:36;4.63;;;2.00;;
10319;SDS011;5205;52.168;5.420;2023-08-06T14:12:05;4.45;;;2.50;;
10319;SDS011;5205;52.168;5.420;2023-08-06T14:14:32;5.68;;;1.92;;
10319;SDS011;5205;52.168;5.420;2023-08-06T14:16:59;5.32;;;2.20;;
10319;SDS011;5205;52.168;5.420;2023-08-06T14:19:26;4.80;;;1.92;;
10319;SDS011;5205;52.168;5.420;2023-08-06T14:21:54;6.15;;;2.08;;
10319;SDS011;5205;52.168;5.420;2023-08-06T14:24:21;3.38;;;1.73;;
10319;SDS011;5205;52.168;5.420;2023-08-06T14:26:48;4.70;;;1.88;;
10319;SDS011;5205;52.168;5.420;2023-08-06T14:29:17;4.57;;;1.98;;
10319;SDS011;5205;52.168;5.420;2023-08-06T14:31:45;4.75;;;2.20;;
10319;SDS011;5205;52.168;5.420;2023-08-06T14:34:12;4.72;;;2.28;;
10319;SDS011;5205;52.168;5.420;2023-08-06T14:36:39;4.05;;;2.22;;
10319;SDS011;5205;52.168;5.420;2023-08-06T14:39:06;4.78;;;2.00;;
10319;SDS011;5205;52.168;5.420;2023-08-06T14:41:33;3.70;;;2.15;;
10319;SDS011;5205;52.168;5.420;2023-08-06T14:44:00;3.63;;;2.10;;
10319;SDS011;5205;52.168;5.420;2023-08-06T14:46:29;6.15;;;2.28;;
10319;SDS011;5205;52.168;5.420;2023-08-06T14:48:56;5.07;;;2.42;;
10319;SDS011;5205;52.168;5.420;2023-08-06T14:51:23;4.07;;;2.00;;
10319;SDS011;5205;52.168;5.420;2023-08-06T14:53:51;4.20;;;2.20;;
10319;SDS011;5205;52.168;5.420;2023-08-06T14:56:18;3.83;;;2.03;;